createdAt,value
2022-12-03T00:02:02.909Z,23.98
2022-12-03T00:04:29.610Z,20.00
2022-12-03T00:06:56.345Z,22.88
2022-12-03T00:09:23.080Z,22.10
2022-12-03T00:11:51.136Z,22.48
2022-12-03T00:14:17.873Z,20.43
2022-12-03T00:16:44.657Z,20.42
2022-12-03T00:19:11.372Z,26.58
2022-12-03T00:21:38.123Z,25.45
2022-12-03T00:24:05.463Z,26.27
2022-12-03T00:26:32.223Z,27.58
2022-12-03T00:29:00.276Z,23.92
2022-12-03T00:31:27.036Z,23.73
2022-12-03T00:33:53.820Z,24.55
2022-12-03T00:36:20.545Z,25.52
2022-12-03T00:38:47.346Z,21.98
2022-12-03T00:41:14.090Z,24.80
2022-12-03T00:43:40.790Z,25.60
2022-12-03T00:46:08.876Z,24.60
2022-12-03T00:48:35.631Z,25.20
2022-12-03T00:51:02.420Z,28.35
2022-12-03T00:53:29.125Z,24.98
2022-12-03T00:55:55.821Z,24.02
2022-12-03T00:58:22.473Z,23.75
2022-12-03T01:00:49.179Z,22.83
2022-12-03T01:03:17.192Z,23.38
2022-12-03T01:05:43.876Z,21.90
2022-12-03T01:08:10.651Z,21.88
2022-12-03T01:10:37.529Z,24.92
2022-12-03T01:13:04.249Z,24.23
2022-12-03T01:15:31.091Z,27.00
2022-12-03T01:17:57.776Z,25.13
2022-12-03T01:20:25.816Z,23.95
2022-12-03T01:22:52.696Z,26.50
2022-12-03T01:25:19.383Z,24.60
2022-12-03T01:27:46.064Z,24.95
2022-12-03T01:30:13.948Z,27.27
2022-12-03T01:32:40.605Z,23.65
2022-12-03T01:35:07.912Z,25.45
2022-12-03T01:37:36.357Z,25.88
2022-12-03T01:40:04.442Z,28.73
2022-12-03T01:42:35.228Z,29.13
2022-12-03T01:45:02.765Z,28.10
2022-12-03T01:47:33.692Z,26.17
2022-12-03T01:50:03.692Z,25.85
2022-12-03T01:52:33.239Z,28.27
2022-12-03T01:55:04.167Z,26.30
2022-12-03T01:57:36.675Z,24.67
2022-12-03T02:00:04.304Z,26.85
2022-12-03T02:02:32.853Z,29.65
2022-12-03T02:05:00.325Z,27.67
2022-12-03T02:07:29.522Z,29.55
2022-12-03T02:09:59.409Z,25.42
2022-12-03T02:12:31.955Z,26.02
2022-12-03T02:14:59.404Z,28.90
2022-12-03T02:17:26.800Z,31.77
2022-12-03T02:19:54.147Z,30.23
2022-12-03T02:22:30.741Z,29.15
2022-12-03T02:25:10.685Z,17.70
2022-12-03T02:27:37.728Z,29.70
2022-12-03T02:30:06.228Z,28.00
2022-12-03T02:32:33.095Z,25.35
2022-12-03T02:34:59.814Z,30.20
2022-12-03T02:37:32.225Z,23.58
2022-12-03T02:40:02.496Z,26.35
2022-12-03T02:42:30.916Z,26.80
2022-12-03T02:45:04.887Z,30.38
2022-12-03T02:47:33.760Z,29.58
2022-12-03T02:50:01.337Z,27.90
2022-12-03T02:52:28.240Z,22.15
2022-12-03T02:54:55.352Z,26.55
2022-12-03T02:57:22.439Z,25.60
2022-12-03T02:59:50.916Z,23.02
2022-12-03T03:02:17.861Z,29.73
2022-12-03T03:04:45.079Z,24.52
2022-12-03T03:07:11.935Z,31.25
2022-12-03T03:09:38.823Z,24.45
2022-12-03T03:12:06.236Z,23.90
2022-12-03T03:14:33.648Z,28.33
2022-12-03T03:17:01.784Z,30.05
2022-12-03T03:19:29.473Z,29.80
2022-12-03T03:21:56.488Z,23.85
2022-12-03T03:24:23.786Z,27.45
2022-12-03T03:26:50.669Z,25.33
2022-12-03T03:29:18.064Z,15.38
2022-12-03T03:31:46.987Z,23.77
2022-12-03T03:36:42.125Z,20.00
2022-12-03T03:39:09.723Z,27.67
2022-12-03T03:41:36.867Z,19.85
2022-12-03T03:44:04.894Z,25.92
2022-12-03T03:46:32.126Z,23.45
2022-12-03T03:48:59.052Z,21.13
2022-12-03T03:51:27.499Z,22.92
2022-12-03T03:53:54.695Z,25.95
2022-12-03T03:56:22.054Z,28.98
2022-12-03T03:58:48.946Z,26.60
2022-12-03T04:01:17.875Z,24.17
2022-12-03T04:03:44.601Z,19.42
2022-12-03T04:06:11.366Z,23.15
2022-12-03T04:08:39.372Z,20.35
2022-12-03T04:11:06.349Z,22.90
2022-12-03T04:13:33.044Z,20.50
2022-12-03T04:15:59.710Z,26.27
2022-12-03T04:18:26.423Z,17.48
2022-12-03T04:20:53.152Z,21.92
2022-12-03T04:23:19.824Z,14.63
2022-12-03T04:25:47.861Z,20.95
2022-12-03T04:28:14.556Z,19.60
2022-12-03T04:30:41.339Z,18.52
2022-12-03T04:33:08.141Z,17.85
2022-12-03T04:35:34.952Z,19.88
2022-12-03T04:38:01.721Z,25.02
2022-12-03T04:40:28.382Z,24.52
2022-12-03T04:42:56.395Z,22.30
2022-12-03T04:45:23.099Z,18.38
2022-12-03T04:47:49.805Z,16.50
2022-12-03T04:50:16.721Z,27.00
2022-12-03T04:52:43.446Z,24.00
2022-12-03T04:55:10.343Z,19.40
2022-12-03T04:57:37.087Z,22.13
2022-12-03T05:00:06.617Z,14.95
2022-12-03T05:02:33.353Z,28.60
2022-12-03T05:05:00.095Z,22.60
2022-12-03T05:07:26.808Z,25.35
2022-12-03T05:09:53.597Z,25.50
2022-12-03T05:12:20.315Z,30.08
2022-12-03T05:14:46.997Z,18.05
2022-12-03T05:17:15.040Z,23.77
2022-12-03T05:19:41.749Z,27.40
2022-12-03T05:22:08.491Z,22.95
2022-12-03T05:24:35.204Z,25.45
2022-12-03T05:27:01.928Z,16.27
2022-12-03T05:29:28.641Z,21.60
2022-12-03T05:31:55.312Z,30.55
2022-12-03T05:34:23.357Z,28.60
2022-12-03T05:36:50.051Z,25.27
2022-12-03T05:39:16.779Z,23.60
2022-12-03T05:41:43.476Z,25.23
2022-12-03T05:44:10.196Z,24.42
2022-12-03T05:46:36.913Z,30.08
2022-12-03T05:49:03.693Z,24.98
2022-12-03T05:51:31.716Z,24.92
2022-12-03T05:53:58.439Z,25.33
2022-12-03T05:56:25.094Z,22.33
2022-12-03T05:58:51.781Z,32.42
2022-12-03T06:01:18.507Z,23.42
2022-12-03T06:03:45.277Z,26.10
2022-12-03T06:06:12.034Z,31.27
2022-12-03T06:08:40.107Z,27.20
2022-12-03T06:11:06.798Z,25.50
2022-12-03T06:13:33.547Z,27.35
2022-12-03T06:16:00.301Z,29.65
2022-12-03T06:18:27.073Z,28.98
2022-12-03T06:20:53.801Z,28.33
2022-12-03T06:23:20.488Z,36.30
2022-12-03T06:25:48.563Z,23.60
2022-12-03T06:28:15.244Z,28.90
2022-12-03T06:30:41.948Z,25.65
2022-12-03T06:33:08.668Z,26.08
2022-12-03T06:35:35.896Z,27.88
2022-12-03T06:38:02.698Z,24.60
2022-12-03T06:40:29.430Z,25.27
2022-12-03T06:42:57.476Z,29.40
2022-12-03T06:45:24.219Z,31.77
2022-12-03T06:47:50.889Z,29.67
2022-12-03T06:50:17.629Z,32.00
2022-12-03T06:52:44.452Z,30.02
2022-12-03T06:55:11.192Z,29.67
2022-12-03T06:57:37.915Z,17.17
2022-12-03T07:00:07.706Z,23.45
2022-12-03T07:02:34.524Z,27.90
2022-12-03T07:05:01.383Z,33.05
2022-12-03T07:07:28.102Z,19.88
2022-12-03T07:09:54.864Z,28.20
2022-12-03T07:12:21.952Z,21.00
2022-12-03T07:14:48.658Z,19.55
2022-12-03T07:17:16.688Z,33.28
2022-12-03T07:19:43.353Z,28.80
2022-12-03T07:22:10.044Z,22.20
2022-12-03T07:24:36.731Z,30.83
2022-12-03T07:27:03.609Z,28.98
2022-12-03T07:29:30.340Z,25.00
2022-12-03T07:31:57.128Z,29.88
2022-12-03T07:34:25.251Z,24.70
2022-12-03T07:36:51.934Z,19.50
2022-12-03T07:39:18.732Z,28.85
2022-12-03T07:41:45.395Z,24.95
2022-12-03T07:44:14.494Z,18.20
2022-12-03T07:46:42.967Z,27.05
2022-12-03T07:49:09.783Z,27.23
2022-12-03T07:51:37.806Z,31.13
2022-12-03T07:54:04.605Z,32.50
2022-12-03T07:56:31.495Z,26.77
2022-12-03T07:58:58.188Z,26.98
2022-12-03T08:01:25.002Z,35.33
2022-12-03T08:03:51.803Z,19.20
2022-12-03T08:06:18.532Z,26.58
2022-12-03T08:08:46.554Z,25.30
2022-12-03T08:11:14.012Z,23.55
2022-12-03T08:13:40.753Z,33.35
2022-12-03T08:16:15.018Z,21.63
2022-12-03T08:18:41.779Z,23.88
2022-12-03T08:21:11.403Z,34.35
2022-12-03T08:23:38.139Z,31.55
2022-12-03T08:26:17.119Z,33.83
2022-12-03T08:31:16.863Z,26.50
2022-12-03T08:33:43.914Z,30.98
2022-12-03T08:36:14.494Z,30.92
2022-12-03T08:38:41.407Z,33.30
2022-12-03T08:41:12.920Z,28.45
2022-12-03T08:43:39.812Z,32.55
2022-12-03T08:46:13.086Z,23.10
2022-12-03T08:48:44.003Z,36.70
2022-12-03T08:51:20.813Z,35.50
2022-12-03T08:53:49.184Z,31.58
2022-12-03T08:56:25.216Z,45.28
2022-12-03T08:58:55.532Z,24.77
2022-12-03T09:01:33.285Z,39.00
2022-12-03T09:04:15.480Z,43.97
2022-12-03T09:06:42.469Z,36.15
2022-12-03T09:09:09.213Z,40.97
2022-12-03T09:11:37.388Z,41.33
2022-12-03T09:14:04.912Z,39.60
2022-12-03T09:16:32.290Z,41.75
2022-12-03T09:18:59.071Z,35.13
2022-12-03T09:21:25.807Z,49.25
2022-12-03T09:23:52.671Z,36.92
2022-12-03T09:26:19.464Z,37.08
2022-12-03T09:28:47.493Z,31.73
2022-12-03T09:31:14.511Z,36.92
2022-12-03T09:33:41.245Z,28.13
2022-12-03T09:36:08.245Z,28.92
2022-12-03T09:38:35.019Z,32.70
2022-12-03T09:41:02.000Z,33.75
2022-12-03T09:44:02.744Z,32.28
2022-12-03T09:46:22.040Z,27.38
2022-12-03T09:48:48.947Z,35.17
2022-12-03T09:51:15.714Z,26.15
2022-12-03T09:53:42.534Z,24.02
2022-12-03T09:56:22.728Z,27.35
2022-12-03T09:58:50.203Z,34.25
2022-12-03T10:01:17.479Z,29.42
2022-12-03T10:03:48.102Z,34.63
2022-12-03T10:06:18.176Z,34.97
2022-12-03T10:08:46.901Z,27.13
2022-12-03T10:11:13.888Z,34.15
2022-12-03T10:13:41.019Z,31.23
2022-12-03T10:16:10.746Z,27.58
2022-12-03T10:18:41.900Z,31.77
2022-12-03T10:21:18.507Z,32.72
2022-12-03T10:23:48.226Z,32.85
2022-12-03T10:26:16.903Z,32.40
2022-12-03T10:28:45.554Z,27.88
2022-12-03T10:31:15.089Z,33.63
2022-12-03T10:33:44.309Z,33.55
2022-12-03T10:38:43.452Z,35.75
2022-12-03T10:41:24.857Z,27.65
2022-12-03T10:43:51.654Z,31.65
2022-12-03T10:46:20.038Z,34.15
2022-12-03T10:49:10.502Z,29.90
2022-12-03T10:51:39.768Z,38.47
2022-12-03T10:54:18.627Z,26.20
2022-12-03T10:56:46.888Z,35.88
2022-12-03T10:59:16.624Z,29.30
2022-12-03T11:01:43.629Z,36.22
2022-12-03T11:04:19.465Z,40.53
2022-12-03T11:06:48.221Z,28.10
2022-12-03T11:09:20.473Z,41.35
2022-12-03T11:11:47.665Z,33.00
2022-12-03T11:14:34.365Z,35.10
2022-12-03T11:17:07.693Z,26.20
2022-12-03T11:19:49.792Z,32.53
2022-12-03T11:22:33.352Z,31.58
2022-12-03T11:25:44.731Z,31.77
2022-12-03T11:28:31.060Z,41.63
2022-12-03T11:31:00.670Z,36.05
2022-12-03T11:33:29.447Z,37.53
2022-12-03T11:36:12.520Z,37.88
2022-12-03T11:38:53.510Z,29.13
2022-12-03T11:41:29.775Z,37.40
2022-12-03T11:44:32.500Z,42.00
2022-12-03T11:47:07.764Z,30.33
2022-12-03T11:49:48.703Z,34.05
2022-12-03T11:52:25.475Z,29.30
2022-12-03T11:54:57.726Z,35.28
2022-12-03T11:57:36.911Z,34.47
2022-12-03T12:00:22.473Z,31.17
2022-12-03T12:02:50.371Z,32.97
2022-12-03T12:05:26.769Z,37.05
2022-12-03T12:07:54.247Z,32.38
2022-12-03T12:10:46.573Z,34.40
2022-12-03T12:13:28.041Z,32.75
2022-12-03T12:15:55.093Z,34.22
2022-12-03T12:18:35.900Z,29.58
2022-12-03T12:21:41.155Z,24.85
2022-12-03T12:24:34.097Z,26.02
2022-12-03T12:27:04.950Z,34.28
2022-12-03T12:29:31.750Z,34.80
2022-12-03T12:32:02.278Z,20.73
2022-12-03T12:34:29.254Z,26.88
2022-12-03T12:36:57.225Z,32.25
2022-12-03T12:39:25.756Z,25.38
2022-12-03T12:41:52.609Z,25.95
2022-12-03T12:44:21.731Z,19.52
2022-12-03T12:46:51.600Z,30.05
2022-12-03T12:49:18.324Z,24.15
2022-12-03T12:51:46.076Z,35.70
2022-12-03T12:54:15.293Z,33.17
2022-12-03T12:56:44.736Z,25.80
2022-12-03T12:59:13.844Z,30.35
2022-12-03T13:01:44.307Z,26.85
2022-12-03T13:04:12.804Z,32.20
2022-12-03T13:06:40.580Z,27.27
2022-12-03T13:09:14.614Z,42.08
2022-12-03T13:11:42.537Z,38.85
2022-12-03T13:14:15.535Z,41.03
2022-12-03T13:16:44.093Z,36.58
2022-12-03T13:19:21.088Z,39.50
2022-12-03T13:21:47.952Z,32.85
2022-12-03T13:24:29.480Z,37.90
2022-12-03T13:26:56.257Z,35.13
2022-12-03T13:29:23.660Z,27.00
2022-12-03T13:31:54.094Z,33.58
2022-12-03T13:34:22.847Z,39.33
2022-12-03T13:36:57.149Z,41.75
2022-12-03T13:39:29.282Z,38.00
2022-12-03T13:41:56.168Z,37.78
2022-12-03T13:44:22.917Z,26.45
2022-12-03T13:46:49.641Z,37.90
2022-12-03T13:49:20.640Z,25.48
2022-12-03T13:51:48.181Z,29.85
2022-12-03T13:54:19.577Z,31.85
2022-12-03T13:56:46.270Z,26.55
2022-12-03T13:59:13.048Z,34.60
2022-12-03T14:01:40.045Z,30.05
2022-12-03T14:04:23.368Z,29.20
2022-12-03T14:06:50.060Z,28.03
2022-12-03T14:09:16.808Z,38.67
2022-12-03T14:11:43.474Z,22.08
2022-12-03T14:14:10.185Z,28.90
2022-12-03T14:16:36.908Z,36.65
2022-12-03T14:19:03.747Z,40.10
2022-12-03T14:21:31.847Z,37.80
2022-12-03T14:23:58.664Z,40.83
2022-12-03T14:26:25.341Z,31.77
2022-12-03T14:28:52.016Z,28.75
2022-12-03T14:31:18.748Z,41.90
2022-12-03T14:33:45.452Z,20.48
2022-12-03T14:36:12.192Z,40.38
2022-12-03T14:38:40.374Z,34.28
2022-12-03T14:41:07.120Z,42.15
2022-12-03T14:43:33.800Z,31.27
2022-12-03T14:46:00.577Z,41.65
2022-12-03T14:48:27.317Z,29.33
2022-12-03T14:50:54.032Z,41.72
2022-12-03T14:53:26.898Z,35.72
2022-12-03T14:55:55.354Z,37.47
2022-12-03T14:58:22.064Z,38.67
2022-12-03T15:00:48.865Z,39.60
2022-12-03T15:03:15.636Z,28.95
2022-12-03T15:05:42.331Z,35.45
2022-12-03T15:08:09.056Z,30.80
2022-12-03T15:10:35.785Z,29.73
2022-12-03T15:13:03.904Z,34.90
2022-12-03T15:15:30.649Z,33.00
2022-12-03T15:17:57.392Z,20.58
2022-12-03T15:20:24.140Z,35.67
2022-12-03T15:22:53.658Z,36.70
2022-12-03T15:25:20.430Z,37.65
2022-12-03T15:27:47.097Z,24.50
2022-12-03T15:30:15.577Z,30.50
2022-12-03T15:32:42.285Z,37.75
2022-12-03T15:35:09.585Z,43.10
2022-12-03T15:37:36.266Z,42.67
2022-12-03T15:40:03.252Z,33.55
2022-12-03T15:42:29.939Z,37.58
2022-12-03T15:44:56.730Z,39.25
2022-12-03T15:47:25.193Z,28.50
2022-12-03T15:49:52.085Z,41.97
2022-12-03T15:52:18.948Z,37.53
2022-12-03T15:54:45.660Z,38.00
2022-12-03T15:57:12.444Z,43.08
2022-12-03T15:59:39.206Z,33.40
2022-12-03T16:02:06.565Z,38.20
2022-12-03T16:04:34.829Z,42.83
2022-12-03T16:07:01.562Z,32.47
2022-12-03T16:09:28.256Z,39.90
2022-12-03T16:11:55.090Z,31.30
2022-12-03T16:14:21.832Z,41.15
2022-12-03T16:16:48.579Z,34.80
2022-12-03T16:19:15.333Z,33.92
2022-12-03T16:21:43.411Z,44.42
2022-12-03T16:24:10.089Z,32.43
2022-12-03T16:26:36.805Z,44.60
2022-12-03T16:29:03.617Z,38.70
2022-12-03T16:31:30.441Z,30.10
2022-12-03T16:33:57.145Z,41.70
2022-12-03T16:36:23.927Z,40.08
2022-12-03T16:38:51.954Z,37.10
2022-12-03T16:41:18.650Z,37.03
2022-12-03T16:43:45.406Z,37.95
2022-12-03T16:46:12.244Z,27.63
2022-12-03T16:48:38.971Z,35.05
2022-12-03T16:51:05.897Z,35.80
2022-12-03T16:53:32.753Z,28.92
2022-12-03T16:56:01.035Z,33.53
2022-12-03T16:58:28.379Z,43.60
2022-12-03T17:00:55.156Z,41.60
2022-12-03T17:03:22.420Z,45.40
2022-12-03T17:05:49.392Z,37.40
2022-12-03T17:08:16.709Z,39.97
2022-12-03T17:10:44.083Z,36.10
2022-12-03T17:13:12.361Z,34.85
2022-12-03T17:15:39.714Z,51.40
2022-12-03T17:18:07.048Z,40.65
2022-12-03T17:20:35.271Z,36.30
2022-12-03T17:23:02.334Z,43.08
2022-12-03T17:25:29.763Z,37.95
2022-12-03T17:27:56.468Z,48.90
2022-12-03T17:30:24.575Z,40.53
2022-12-03T17:32:51.368Z,30.63
2022-12-03T17:35:18.309Z,45.40
2022-12-03T17:37:45.016Z,44.00
2022-12-03T17:40:13.600Z,39.05
2022-12-03T17:42:40.464Z,42.20
2022-12-03T17:45:08.664Z,37.70
2022-12-03T17:47:36.687Z,38.95
2022-12-03T17:50:03.622Z,32.73
2022-12-03T17:52:30.282Z,30.65
2022-12-03T17:55:19.890Z,42.58
2022-12-03T17:57:43.673Z,36.33
2022-12-03T18:00:11.565Z,37.70
2022-12-03T18:02:39.618Z,37.78
2022-12-03T18:05:06.657Z,36.73
2022-12-03T18:07:33.408Z,41.60
2022-12-03T18:10:00.146Z,44.97
2022-12-03T18:12:26.957Z,42.53
2022-12-03T18:14:53.661Z,45.08
2022-12-03T18:17:20.353Z,42.63
2022-12-03T18:19:48.376Z,46.28
2022-12-03T18:22:15.419Z,34.87
2022-12-03T18:24:44.943Z,44.17
2022-12-03T18:27:12.865Z,37.40
2022-12-03T18:29:39.588Z,37.92
2022-12-03T18:32:25.827Z,48.78
2022-12-03T18:34:56.171Z,49.15
2022-12-03T18:37:26.016Z,44.43
2022-12-03T18:39:53.332Z,53.85
2022-12-03T18:42:21.897Z,45.25
2022-12-03T18:44:50.764Z,59.55
2022-12-03T18:47:19.294Z,66.60
2022-12-03T18:49:48.122Z,62.17
2022-12-03T18:52:17.478Z,54.05
2022-12-03T18:54:44.630Z,50.40
2022-12-03T18:57:12.922Z,49.90
2022-12-03T18:59:39.712Z,55.90
2022-12-03T19:02:07.741Z,34.58
2022-12-03T19:04:34.565Z,36.90
2022-12-03T19:07:01.340Z,44.00
2022-12-03T19:09:29.471Z,52.92
2022-12-03T19:11:56.193Z,50.60
2022-12-03T19:14:22.957Z,58.58
2022-12-03T19:16:49.693Z,57.67
2022-12-03T19:19:16.475Z,52.17
2022-12-03T19:21:43.204Z,54.15
2022-12-03T19:24:24.432Z,43.50
2022-12-03T19:26:53.212Z,53.95
2022-12-03T19:29:20.140Z,58.05
2022-12-03T19:31:48.456Z,35.28
2022-12-03T19:34:15.314Z,41.30
2022-12-03T19:36:42.087Z,49.67
2022-12-03T19:39:08.804Z,58.10
2022-12-03T19:41:35.569Z,48.50
2022-12-03T19:44:09.272Z,35.28
2022-12-03T19:46:37.577Z,42.05
2022-12-03T19:49:04.331Z,55.05
2022-12-03T19:51:35.616Z,47.40
2022-12-03T19:54:02.778Z,43.20
2022-12-03T19:56:29.528Z,56.75
2022-12-03T19:58:56.727Z,33.28
2022-12-03T20:01:27.105Z,39.20
2022-12-03T20:03:57.763Z,42.38
2022-12-03T20:06:26.324Z,54.47
2022-12-03T20:08:56.364Z,37.60
2022-12-03T20:11:25.052Z,39.80
2022-12-03T20:13:53.436Z,45.78
2022-12-03T20:16:20.575Z,43.15
2022-12-03T20:18:49.728Z,38.58
2022-12-03T20:21:18.666Z,32.80
2022-12-03T20:23:46.229Z,33.60
2022-12-03T20:26:15.560Z,47.45
2022-12-03T20:28:42.776Z,38.85
2022-12-03T20:31:11.522Z,51.30
2022-12-03T20:33:39.433Z,49.45
2022-12-03T20:36:10.644Z,52.42
2022-12-03T20:38:37.782Z,44.55
2022-12-03T20:41:06.707Z,53.55
2022-12-03T20:43:33.604Z,39.50
2022-12-03T20:46:06.380Z,54.08
2022-12-03T20:48:33.120Z,47.83
2022-12-03T20:51:02.215Z,42.70
2022-12-03T20:53:30.318Z,53.58
2022-12-03T20:55:57.106Z,28.20
2022-12-03T20:58:23.973Z,59.88
2022-12-03T21:00:50.894Z,47.90
2022-12-03T21:03:17.648Z,42.58
2022-12-03T21:05:44.468Z,36.10
2022-12-03T21:08:11.663Z,47.08
2022-12-03T21:10:40.811Z,54.13
2022-12-03T21:13:07.544Z,46.65
2022-12-03T21:15:34.276Z,50.05
2022-12-03T21:18:01.051Z,34.22
2022-12-03T21:20:27.791Z,47.13
2022-12-03T21:22:54.503Z,34.53
2022-12-03T21:25:21.241Z,51.25
2022-12-03T21:27:49.299Z,51.90
2022-12-03T21:30:16.428Z,33.57
2022-12-03T21:32:43.180Z,40.80
2022-12-03T21:35:09.942Z,48.67
2022-12-03T21:37:36.671Z,41.42
2022-12-03T21:40:03.593Z,51.17
2022-12-03T21:42:35.285Z,49.45
2022-12-03T21:45:06.330Z,49.55
2022-12-03T21:47:37.308Z,51.35
2022-12-03T21:50:05.989Z,49.67
2022-12-03T21:52:36.082Z,34.05
2022-12-03T21:55:02.840Z,47.40
2022-12-03T21:57:29.607Z,38.05
2022-12-03T21:59:57.053Z,45.03
2022-12-03T22:02:27.033Z,49.08
2022-12-03T22:04:54.079Z,58.03
2022-12-03T22:07:20.805Z,55.47
2022-12-03T22:09:47.485Z,39.58
2022-12-03T22:12:14.161Z,56.40
2022-12-03T22:14:40.895Z,51.72
2022-12-03T22:17:07.638Z,44.58
2022-12-03T22:19:35.740Z,35.85
2022-12-03T22:22:02.458Z,55.90
2022-12-03T22:24:29.312Z,46.50
2022-12-03T22:26:56.032Z,33.45
2022-12-03T22:29:22.734Z,56.17
2022-12-03T22:31:49.421Z,51.38
2022-12-03T22:34:16.223Z,52.67
2022-12-03T22:36:44.288Z,48.72
2022-12-03T22:39:10.973Z,48.50
2022-12-03T22:41:37.644Z,48.95
2022-12-03T22:44:04.470Z,50.88
2022-12-03T22:46:31.261Z,49.95
2022-12-03T22:49:00.639Z,36.60
2022-12-03T22:51:31.786Z,54.22
2022-12-03T22:54:01.811Z,48.85
2022-12-03T22:56:29.950Z,53.13
2022-12-03T22:58:57.259Z,52.03
2022-12-03T23:01:26.249Z,51.95
2022-12-03T23:06:20.400Z,57.20
2022-12-03T23:08:47.456Z,38.85
2022-12-03T23:11:15.639Z,33.50
2022-12-03T23:13:42.525Z,60.70
2022-12-03T23:16:13.032Z,44.30
2022-12-03T23:18:39.832Z,35.55
2022-12-03T23:21:06.745Z,45.72
2022-12-03T23:23:33.516Z,63.20
2022-12-03T23:26:01.621Z,50.50
2022-12-03T23:28:31.657Z,51.17
2022-12-03T23:30:58.617Z,57.50
2022-12-03T23:33:27.566Z,43.53
2022-12-03T23:35:54.843Z,61.65
2022-12-03T23:38:21.592Z,61.75
2022-12-03T23:40:48.699Z,55.78
2022-12-03T23:43:15.827Z,43.30
2022-12-03T23:45:43.846Z,45.08
2022-12-03T23:48:10.656Z,55.57
2022-12-03T23:50:39.125Z,58.20
2022-12-03T23:53:05.969Z,60.25
2022-12-03T23:55:32.679Z,44.95
2022-12-03T23:57:59.379Z,54.47
